createdAt,value
2023-05-19T00:01:50.240Z,10.74
2023-05-19T00:04:52.202Z,10.98
2023-05-19T00:07:58.759Z,10.98
2023-05-19T00:11:01.895Z,11.01
2023-05-19T00:14:06.146Z,10.95
2023-05-19T00:17:08.642Z,10.98
2023-05-19T00:20:12.227Z,11.03
2023-05-19T00:23:13.945Z,11.00
2023-05-19T00:26:15.773Z,11.04
2023-05-19T00:29:26.612Z,10.99
2023-05-19T00:32:28.422Z,10.93
2023-05-19T00:35:30.406Z,10.95
2023-05-19T00:38:35.381Z,10.45
2023-05-19T00:41:37.216Z,10.98
2023-05-19T00:44:41.820Z,10.94
2023-05-19T00:47:43.898Z,10.95
2023-05-19T00:50:46.214Z,10.93
2023-05-19T00:53:51.089Z,10.96
2023-05-19T00:56:54.607Z,10.95
2023-05-19T00:59:56.595Z,10.96
2023-05-19T01:02:58.614Z,10.95
2023-05-19T01:06:05.083Z,10.91
2023-05-19T01:09:07.767Z,10.91
2023-05-19T01:12:09.741Z,10.93
2023-05-19T01:15:12.218Z,10.90
2023-05-19T01:18:24.774Z,10.78
2023-05-19T01:21:44.458Z,10.82
2023-05-19T01:24:58.448Z,10.79
2023-05-19T01:28:06.514Z,10.75
2023-05-19T01:31:10.041Z,10.80
2023-05-19T01:34:14.690Z,10.68
2023-05-19T01:37:17.894Z,10.71
2023-05-19T01:40:23.000Z,10.65
2023-05-19T01:43:27.570Z,10.69
2023-05-19T01:46:29.391Z,10.73
2023-05-19T01:49:31.271Z,10.66
2023-05-19T01:52:33.158Z,10.63
2023-05-19T01:55:45.541Z,10.61
2023-05-19T01:58:53.046Z,10.61
2023-05-19T02:02:01.168Z,10.62
2023-05-19T02:05:40.747Z,10.62
2023-05-19T02:08:51.056Z,10.63
2023-05-19T02:12:01.174Z,10.61
2023-05-19T02:15:26.118Z,10.60
2023-05-19T02:18:30.024Z,10.59
2023-05-19T02:21:31.957Z,10.54
2023-05-19T02:24:33.778Z,10.54
2023-05-19T02:27:37.397Z,10.37
2023-05-19T02:30:39.126Z,10.50
2023-05-19T02:33:41.373Z,10.49
2023-05-19T02:36:43.756Z,10.49
2023-05-19T02:39:45.570Z,10.45
2023-05-19T02:42:47.440Z,10.36
2023-05-19T02:45:49.242Z,10.45
2023-05-19T02:48:51.520Z,10.37
2023-05-19T02:51:53.436Z,10.35
2023-05-19T02:54:55.111Z,10.36
2023-05-19T02:57:56.892Z,10.41
2023-05-19T03:00:58.665Z,10.43
2023-05-19T03:04:00.740Z,10.40
2023-05-19T03:07:03.361Z,10.37
2023-05-19T03:10:06.818Z,10.24
2023-05-19T03:13:08.601Z,10.31
2023-05-19T03:16:10.434Z,10.40
2023-05-19T03:19:12.214Z,10.27
2023-05-19T03:22:14.003Z,10.50
2023-05-19T03:25:15.844Z,10.55
2023-05-19T03:28:17.682Z,10.61
2023-05-19T03:31:19.487Z,10.57
2023-05-19T03:34:22.483Z,10.63
2023-05-19T03:37:25.290Z,10.66
2023-05-19T03:40:27.188Z,10.74
2023-05-19T03:43:35.901Z,10.75
2023-05-19T03:46:39.965Z,10.78
2023-05-19T03:50:01.235Z,10.80
2023-05-19T03:53:26.609Z,10.88
2023-05-19T03:56:28.832Z,10.89
2023-05-19T03:59:31.397Z,10.93
2023-05-19T04:02:33.301Z,10.97
2023-05-19T04:05:35.241Z,11.02
2023-05-19T04:08:36.977Z,11.10
2023-05-19T04:11:39.787Z,11.16
2023-05-19T04:14:41.580Z,11.14
2023-05-19T04:17:45.226Z,11.25
2023-05-19T04:20:47.206Z,11.31
2023-05-19T04:23:49.034Z,11.44
2023-05-19T04:26:50.993Z,11.51
2023-05-19T04:29:54.824Z,11.58
2023-05-19T04:32:58.236Z,11.63
2023-05-19T04:36:05.525Z,11.65
2023-05-19T04:39:10.089Z,11.73
2023-05-19T04:42:13.900Z,11.77
2023-05-19T04:45:15.739Z,11.83
2023-05-19T04:48:24.361Z,11.89
2023-05-19T04:51:30.273Z,12.03
2023-05-19T04:54:35.735Z,12.14
2023-05-19T04:57:38.935Z,12.22
2023-05-19T05:00:41.965Z,12.35
2023-05-19T05:03:44.660Z,12.41
2023-05-19T05:06:48.145Z,12.55
2023-05-19T05:09:50.505Z,12.66
2023-05-19T05:12:52.701Z,12.59
2023-05-19T05:15:56.247Z,12.90
2023-05-19T05:18:58.376Z,13.08
2023-05-19T05:22:00.664Z,13.52
2023-05-19T05:25:03.444Z,13.88
2023-05-19T05:28:06.004Z,14.28
2023-05-19T05:31:10.143Z,14.66
2023-05-19T05:34:12.402Z,14.91
2023-05-19T05:37:15.508Z,15.20
2023-05-19T05:40:17.882Z,15.51
2023-05-19T05:43:19.958Z,15.94
2023-05-19T05:46:28.083Z,16.09
2023-05-19T05:49:30.976Z,16.05
2023-05-19T05:52:34.576Z,16.41
2023-05-19T05:55:36.735Z,16.60
2023-05-19T05:58:40.786Z,16.82
2023-05-19T06:01:44.050Z,16.87
2023-05-19T06:04:46.625Z,17.00
2023-05-19T06:07:48.441Z,17.19
2023-05-19T06:10:55.902Z,17.50
2023-05-19T06:13:58.075Z,17.75
2023-05-19T06:17:26.293Z,17.85
2023-05-19T06:20:28.111Z,17.97
2023-05-19T06:23:31.313Z,17.95
2023-05-19T06:26:33.166Z,18.16
2023-05-19T06:29:35.646Z,18.33
2023-05-19T06:32:42.612Z,18.44
2023-05-19T06:35:44.575Z,18.52
2023-05-19T06:38:46.454Z,18.68
2023-05-19T06:41:48.552Z,18.87
2023-05-19T06:45:10.869Z,18.99
2023-05-19T06:48:13.476Z,19.35
2023-05-19T06:51:21.669Z,19.51
2023-05-19T06:54:26.828Z,19.70
2023-05-19T06:57:28.781Z,19.81
2023-05-19T07:00:32.453Z,19.79
2023-05-19T07:03:35.858Z,19.83
2023-05-19T07:06:38.523Z,19.88
2023-05-19T07:09:41.035Z,20.04
2023-05-19T07:12:43.230Z,20.16
2023-05-19T07:15:45.277Z,20.45
2023-05-19T07:18:47.587Z,20.61
2023-05-19T07:21:49.700Z,20.81
2023-05-19T07:24:51.526Z,20.87
2023-05-19T07:27:53.413Z,20.68
2023-05-19T07:30:55.243Z,20.96
2023-05-19T07:33:57.865Z,21.01
2023-05-19T07:36:59.575Z,20.92
2023-05-19T07:40:01.393Z,21.37
2023-05-19T07:43:03.218Z,20.89
2023-05-19T07:46:06.185Z,21.58
2023-05-19T07:49:07.998Z,21.60
2023-05-19T07:52:09.736Z,21.76
2023-05-19T07:55:13.635Z,21.77
2023-05-19T07:58:15.709Z,22.11
2023-05-19T08:01:17.446Z,22.30
2023-05-19T08:04:19.261Z,22.46
2023-05-19T08:07:21.125Z,22.49
2023-05-19T08:10:22.898Z,22.51
2023-05-19T08:13:24.710Z,22.78
2023-05-19T08:16:26.889Z,22.85
2023-05-19T08:19:28.814Z,22.71
2023-05-19T08:22:30.784Z,22.54
2023-05-19T08:25:32.799Z,22.66
2023-05-19T08:28:34.605Z,22.86
2023-05-19T08:31:36.656Z,23.16
2023-05-19T08:34:38.389Z,23.20
2023-05-19T08:37:40.996Z,23.24
2023-05-19T08:40:43.533Z,23.23
2023-05-19T08:43:45.541Z,23.48
2023-05-19T08:46:48.141Z,23.54
2023-05-19T08:49:53.108Z,23.59
2023-05-19T08:53:34.092Z,23.59
2023-05-19T08:56:37.805Z,23.47
2023-05-19T08:59:41.131Z,23.37
2023-05-19T09:02:50.776Z,23.40
2023-05-19T09:06:04.147Z,23.41
2023-05-19T09:09:06.348Z,23.36
2023-05-19T09:12:08.327Z,23.56
2023-05-19T09:15:10.894Z,23.51
2023-05-19T09:18:15.174Z,23.22
2023-05-19T09:21:17.681Z,23.74
2023-05-19T09:24:19.792Z,23.76
2023-05-19T09:27:25.333Z,23.96
2023-05-19T09:30:27.181Z,23.94
2023-05-19T09:33:30.062Z,24.31
2023-05-19T09:36:32.274Z,24.63
2023-05-19T09:39:34.502Z,24.72
2023-05-19T09:42:40.736Z,24.65
2023-05-19T09:45:42.760Z,24.75
2023-05-19T09:48:44.966Z,24.82
2023-05-19T09:51:49.053Z,24.99
2023-05-19T09:54:51.949Z,24.98
2023-05-19T09:57:56.609Z,25.24
2023-05-19T10:00:59.521Z,25.31
2023-05-19T10:04:01.900Z,25.32
2023-05-19T10:07:06.207Z,25.42
2023-05-19T10:10:14.095Z,25.37
2023-05-19T10:13:16.686Z,25.25
2023-05-19T10:16:21.870Z,25.22
2023-05-19T10:19:25.633Z,25.13
2023-05-19T10:22:28.521Z,24.95
2023-05-19T10:25:35.490Z,24.69
2023-05-19T10:28:41.160Z,24.69
2023-05-19T10:31:44.650Z,24.74
2023-05-19T10:35:14.112Z,24.75
2023-05-19T10:38:34.120Z,24.65
2023-05-19T10:42:13.922Z,24.57
2023-05-19T10:45:22.441Z,24.55
2023-05-19T10:48:24.630Z,24.59
2023-05-19T10:51:33.361Z,24.80
2023-05-19T10:54:47.429Z,24.73
2023-05-19T10:57:58.605Z,24.80
2023-05-19T11:01:01.600Z,24.86
2023-05-19T11:04:09.361Z,25.01
2023-05-19T11:07:15.589Z,24.97
2023-05-19T11:10:23.424Z,24.84
2023-05-19T11:13:28.526Z,24.83
2023-05-19T11:16:32.531Z,24.72
2023-05-19T11:19:37.172Z,24.69
2023-05-19T11:22:40.088Z,24.83
2023-05-19T11:25:50.014Z,24.94
2023-05-19T11:28:52.169Z,25.01
2023-05-19T11:31:54.599Z,25.17
2023-05-19T11:34:57.675Z,25.19
2023-05-19T11:37:59.594Z,25.17
2023-05-19T11:41:01.561Z,25.18
2023-05-19T11:44:03.397Z,25.14
2023-05-19T11:47:05.912Z,25.17
2023-05-19T11:50:12.763Z,25.25
2023-05-19T11:53:16.589Z,25.21
2023-05-19T11:56:18.322Z,25.08
2023-05-19T11:59:32.763Z,25.19
2023-05-19T12:02:36.378Z,25.28
2023-05-19T12:05:44.922Z,24.98
2023-05-19T12:08:47.097Z,25.12
2023-05-19T12:11:49.902Z,25.31
2023-05-19T12:14:53.615Z,25.41
2023-05-19T12:18:00.569Z,25.45
2023-05-19T12:21:02.917Z,25.44
2023-05-19T12:24:06.115Z,25.28
2023-05-19T12:27:19.605Z,25.53
2023-05-19T12:30:29.024Z,25.52
2023-05-19T12:33:34.915Z,25.17
2023-05-19T12:36:41.449Z,25.57
2023-05-19T12:39:44.125Z,25.46
2023-05-19T12:42:46.282Z,25.59
2023-05-19T12:45:48.565Z,25.50
2023-05-19T12:48:50.956Z,25.82
2023-05-19T12:51:53.949Z,25.88
2023-05-19T12:55:14.783Z,25.84
2023-05-19T12:58:17.008Z,25.81
2023-05-19T13:01:18.936Z,25.76
2023-05-19T13:04:20.858Z,25.68
2023-05-19T13:07:22.621Z,25.65
2023-05-19T13:10:27.106Z,25.66
2023-05-19T13:13:29.138Z,25.73
2023-05-19T13:16:30.910Z,25.65
2023-05-19T13:19:32.910Z,25.62
2023-05-19T13:22:34.710Z,25.60
2023-05-19T13:25:36.872Z,25.52
2023-05-19T13:28:38.669Z,25.56
2023-05-19T13:31:40.526Z,25.68
2023-05-19T13:34:42.496Z,25.66
2023-05-19T13:37:44.774Z,25.71
2023-05-19T13:40:46.779Z,25.75
2023-05-19T13:43:48.498Z,25.86
2023-05-19T13:46:52.305Z,25.73
2023-05-19T13:49:54.312Z,25.92
2023-05-19T13:52:56.119Z,25.91
2023-05-19T13:55:57.911Z,25.93
2023-05-19T13:58:59.747Z,25.89
2023-05-19T14:02:02.961Z,25.95
2023-05-19T14:05:06.275Z,26.01
2023-05-19T14:08:08.095Z,25.98
2023-05-19T14:11:09.823Z,25.88
2023-05-19T14:14:11.791Z,25.86
2023-05-19T14:17:13.576Z,26.06
2023-05-19T14:20:15.522Z,26.08
2023-05-19T14:23:17.319Z,25.90
2023-05-19T14:26:19.829Z,25.42
2023-05-19T14:29:21.643Z,24.92
2023-05-19T14:32:23.589Z,24.72
2023-05-19T14:35:25.536Z,24.69
2023-05-19T14:38:27.665Z,24.61
2023-05-19T14:41:31.074Z,24.39
2023-05-19T14:44:33.262Z,24.36
2023-05-19T14:47:35.040Z,24.28
2023-05-19T14:50:36.818Z,24.29
2023-05-19T14:53:38.587Z,24.24
2023-05-19T14:56:40.395Z,24.31
2023-05-19T14:59:42.185Z,24.17
2023-05-19T15:02:44.174Z,24.17
2023-05-19T15:05:45.972Z,24.19
2023-05-19T15:08:47.818Z,23.98
2023-05-19T15:11:52.258Z,23.99
2023-05-19T15:14:54.013Z,23.87
2023-05-19T15:17:55.941Z,23.60
2023-05-19T15:20:57.733Z,23.57
2023-05-19T15:23:59.470Z,23.67
2023-05-19T15:27:01.878Z,23.62
2023-05-19T15:30:05.207Z,23.60
2023-05-19T15:33:07.043Z,23.68
2023-05-19T15:36:08.936Z,23.75
2023-05-19T15:39:10.846Z,23.88
2023-05-19T15:42:12.611Z,24.05
2023-05-19T15:45:14.510Z,24.13
2023-05-19T15:48:16.375Z,24.29
2023-05-19T15:51:18.166Z,24.31
2023-05-19T15:54:20.026Z,24.12
2023-05-19T15:57:21.819Z,24.27
2023-05-19T16:00:23.711Z,24.14
2023-05-19T16:03:25.790Z,24.05
2023-05-19T16:06:27.875Z,24.03
2023-05-19T16:09:29.644Z,23.97
2023-05-19T16:12:31.662Z,23.94
2023-05-19T16:15:33.474Z,23.71
2023-05-19T16:18:35.405Z,23.80
2023-05-19T16:21:37.121Z,23.72
2023-05-19T16:24:38.875Z,23.72
2023-05-19T16:27:40.618Z,23.63
2023-05-19T16:30:43.035Z,23.42
2023-05-19T16:33:44.850Z,23.23
2023-05-19T16:39:48.473Z,22.94
2023-05-19T16:42:52.871Z,22.89
2023-05-19T16:45:54.642Z,22.81
2023-05-19T16:48:56.514Z,22.83
2023-05-19T16:51:58.278Z,22.80
2023-05-19T16:55:00.039Z,22.72
2023-05-19T16:58:01.832Z,22.25
2023-05-19T17:01:04.211Z,22.41
2023-05-19T17:04:05.987Z,22.21
2023-05-19T17:07:07.813Z,22.15
2023-05-19T17:10:10.535Z,22.16
2023-05-19T17:13:12.536Z,21.89
2023-05-19T17:16:14.593Z,21.76
2023-05-19T17:19:16.917Z,21.74
2023-05-19T17:22:19.461Z,21.68
2023-05-19T17:25:21.436Z,21.69
2023-05-19T17:28:23.539Z,21.68
2023-05-19T17:31:25.245Z,21.58
2023-05-19T17:34:27.092Z,21.55
2023-05-19T17:37:29.098Z,21.48
2023-05-19T17:40:31.207Z,21.42
2023-05-19T17:43:33.055Z,21.36
2023-05-19T17:46:34.928Z,21.33
2023-05-19T17:49:36.724Z,21.29
2023-05-19T17:52:40.054Z,21.28
2023-05-19T17:55:43.967Z,21.30
2023-05-19T17:58:47.081Z,21.23
2023-05-19T18:01:49.046Z,21.15
2023-05-19T18:04:51.222Z,20.90
2023-05-19T18:07:54.235Z,21.28
2023-05-19T18:10:57.126Z,21.28
2023-05-19T18:13:58.850Z,21.25
2023-05-19T18:17:00.842Z,21.25
2023-05-19T18:20:02.904Z,21.13
2023-05-19T18:23:05.507Z,21.13
2023-05-19T18:26:07.438Z,21.10
2023-05-19T18:29:14.615Z,21.10
2023-05-19T18:32:17.767Z,21.10
2023-05-19T18:35:21.183Z,21.09
2023-05-19T18:38:25.882Z,21.02
2023-05-19T18:41:28.483Z,20.93
2023-05-19T18:44:30.241Z,20.89
2023-05-19T18:47:32.038Z,20.77
2023-05-19T18:50:34.405Z,20.74
2023-05-19T18:53:37.217Z,20.64
2023-05-19T18:56:39.300Z,20.61
2023-05-19T18:59:41.302Z,20.55
2023-05-19T19:02:43.164Z,20.45
2023-05-19T19:05:44.886Z,20.20
2023-05-19T19:08:47.376Z,20.32
2023-05-19T19:11:49.129Z,20.23
2023-05-19T19:14:51.272Z,20.08
2023-05-19T19:17:53.101Z,19.82
2023-05-19T19:20:57.403Z,19.95
2023-05-19T19:23:59.241Z,19.78
2023-05-19T19:27:01.174Z,19.74
2023-05-19T19:30:03.163Z,19.64
2023-05-19T19:33:06.724Z,19.32
2023-05-19T19:36:09.492Z,19.40
2023-05-19T19:39:13.060Z,19.29
2023-05-19T19:42:14.867Z,19.13
2023-05-19T19:45:17.928Z,19.13
2023-05-19T19:48:19.633Z,18.92
2023-05-19T19:51:21.384Z,18.86
2023-05-19T19:54:23.186Z,18.74
2023-05-19T19:57:25.008Z,18.53
2023-05-19T20:00:26.750Z,18.82
2023-05-19T20:03:29.196Z,18.82
2023-05-19T20:06:32.292Z,18.76
2023-05-19T20:09:34.046Z,18.69
2023-05-19T20:12:36.867Z,18.66
2023-05-19T20:15:39.063Z,18.59
2023-05-19T20:18:40.929Z,18.52
2023-05-19T20:21:42.722Z,18.32
2023-05-19T20:24:44.502Z,18.39
2023-05-19T20:27:46.277Z,18.34
2023-05-19T20:30:47.974Z,18.25
2023-05-19T20:33:50.318Z,18.14
2023-05-19T20:36:52.072Z,18.02
2023-05-19T20:39:54.051Z,17.85
2023-05-19T20:42:55.802Z,17.82
2023-05-19T20:45:57.548Z,17.55
2023-05-19T20:48:59.344Z,17.82
2023-05-19T20:52:01.381Z,17.76
2023-05-19T20:55:03.334Z,17.76
2023-05-19T20:58:05.130Z,17.59
2023-05-19T21:01:06.912Z,17.69
2023-05-19T21:04:08.755Z,17.57
2023-05-19T21:07:10.562Z,17.57
2023-05-19T21:10:14.524Z,17.46
2023-05-19T21:13:17.952Z,17.45
2023-05-19T21:16:20.119Z,17.38
2023-05-19T21:19:22.998Z,17.37
2023-05-19T21:22:25.656Z,17.31
2023-05-19T21:25:27.967Z,17.24
2023-05-19T21:28:30.130Z,17.13
2023-05-19T21:31:32.157Z,17.03
2023-05-19T21:34:34.146Z,16.88
2023-05-19T21:37:36.495Z,16.88
2023-05-19T21:40:38.252Z,16.88
2023-05-19T21:43:42.083Z,16.80
2023-05-19T21:46:44.030Z,16.76
2023-05-19T21:49:45.795Z,16.63
2023-05-19T21:52:47.559Z,16.63
2023-05-19T21:55:49.581Z,16.53
2023-05-19T21:58:51.662Z,16.61
2023-05-19T22:01:53.537Z,16.61
2023-05-19T22:04:55.291Z,16.56
2023-05-19T22:07:57.044Z,16.57
2023-05-19T22:10:58.782Z,16.50
2023-05-19T22:14:00.539Z,16.38
2023-05-19T22:17:02.281Z,16.41
2023-05-19T22:20:04.440Z,16.38
2023-05-19T22:23:06.271Z,16.32
2023-05-19T22:26:08.011Z,16.38
2023-05-19T22:29:15.111Z,16.29
2023-05-19T22:32:18.442Z,16.32
2023-05-19T22:35:20.248Z,16.20
2023-05-19T22:38:22.003Z,16.21
2023-05-19T22:41:23.888Z,16.20
2023-05-19T22:44:25.615Z,16.17
2023-05-19T22:47:27.466Z,16.12
2023-05-19T22:50:29.272Z,16.09
2023-05-19T22:53:31.106Z,16.04
2023-05-19T22:56:32.850Z,16.04
2023-05-19T22:59:35.680Z,15.97
2023-05-19T23:02:37.577Z,15.91
2023-05-19T23:05:40.257Z,15.90
2023-05-19T23:08:42.120Z,15.84
2023-05-19T23:11:44.660Z,15.82
2023-05-19T23:14:46.426Z,15.75
2023-05-19T23:17:48.169Z,15.50
2023-05-19T23:20:49.984Z,15.66
2023-05-19T23:23:52.061Z,15.56
2023-05-19T23:26:54.260Z,15.56
2023-05-19T23:29:56.025Z,15.44
2023-05-19T23:32:57.842Z,15.42
2023-05-19T23:35:59.859Z,15.44
2023-05-19T23:39:01.615Z,15.33
2023-05-19T23:42:03.555Z,15.33
2023-05-19T23:45:06.025Z,15.21
2023-05-19T23:48:07.891Z,15.20
2023-05-19T23:51:09.745Z,15.08
2023-05-19T23:54:11.580Z,15.09
2023-05-19T23:57:13.412Z,14.50
